Rolling Prairie, IN (46371)

1:14 AM CDT on April 26, 2017 (GMT -0500)
East Side - LaPorte | | Change Station

Elev 784 ft 41.61 °N, 86.66 °W | Updated 26 seconds ago

Partly Cloudy
Partly Cloudy
67.3 °F
Feels Like 67.3 °F
N
5.8
Wind Variable Wind from SE
Gusts 7.4 mph

Today
High -- | Low -- °F
--% Chance of Precip.
Yesterday
High -- | Low -- °F
Precip. -- in
Pressure 29.62 in
Visibility 10.0 miles
Clouds Clear
Dew Point 36 °F
Humidity 31%
Rainfall 0.00 in
Snow Depth Not available.
5:49 AM 7:39 PM
Waning Crescent, 0% visible
METAR KPPO 260555Z AUTO 16007KT 10SM CLR 18/13 A2962 RMK AO2 T01810129 10225 20178 402440078
Pressure 29.62 in
Visibility 10.0 miles
Clouds Clear
Dew Point 36 °F
Humidity 31%
Rainfall 0.00 in
Snow Depth Not available.
5:49 AM 7:39 PM
Waning Crescent, 0% visible
METAR KPPO 260555Z AUTO 16007KT 10SM CLR 18/13 A2962 RMK AO2 T01810129 10225 20178 402440078

Get Severe Weather Alerts

Thanks for signing up!

Be on the lookout for a verification email in your inbox.

You'll start receiving the daily forecast at 8 AM.

×

10-Day Weather Forecast

Almanac

Astronomy

Apr. 26, 2017 Rise Set
Actual Time
Civil Twilight
Nautical Twilight
Astronomical Twilight
Moon
Length of Visible Light
Length of Day
Tomorrow will be .
, % of the Moon is Illuminated

Today's Extremes

State Highs State Lows

Community

WunderPhotos

WunderBlog® & News

Nearby

Air Quality

  Air Quality AQ Index Pollutant
Not available.

Snow Depth

Station Depth Elevation

Earthquake Activity

City Distance Mag. Time & Date
Minimum magnitude displayed is 2.5.

Coastal Water Temperatures

Place Temperature

Stations

Nearby Weather Stations

Station Location Temp. Windchill Dew Point Humidity Wind Precip. Elev Updated Type
                   

Watches & Warnings

There are currently no watches in effect.